x

Tanner Bank - 121nm West Of San Diego, Ca (46047) Wave Buoy

3:50 - Wed 29th Jul 2015 All times are PDT. -7 hours from GMT.

  • Sig Wave height 5.6ft
  • Swell Direction
  • Peak Period 16s
  • Average Period 8s
  • Wind
    9mph, 13mph gusts
  • Sea Temp 68°f
  • Luft Temp 64°f
  • Sea Pressure 1012.8mb
  • Tanner Bank - 121nm West Of San Diego, Ca
  • Tanner Bank - 121nm West Of San Diego, Ca

More Historic Weather Station data

Upgrade to MSW Pro to gain access to the past 30 days of data for over 8000 Wavebouys and Weather Stations around the globe.

Join Pro

Comparision Forecast

View Surf forecast
   
Mi 07/29 3:50 5.5ft 16s 8s 9 13 mph 1012.8mb 68f 64f
2:50 6ft 16s 7s 9 13 mph 1012.9mb 68f 64f
1:50 6.5ft 16s 7s 7 11 mph 1013.4mb 68f 64f
12:50 6.5ft 16s 7s 9 13 mph 1013.6mb 68f 64f
Di 07/28 11:50 5.5ft 9s 7s 9 11 mph 1013.8mb 68f 64f
10:50  -   -   -  9 11 mph 1013.3mb 68f 64f
9:50 6ft 16s 7s 13 18 mph 1012.7mb 68f 65f
8:50 5.5ft 8s 6s 16 20 mph 1011.7mb 68f 65f
7:50 6ft 9s 7s 16 22 mph 1011.3mb 68f 65f
6:50 5.5ft 9s 7s 16 20 mph 1011.3mb 68f 65f
5:50 5.5ft 16s 7s 16 20 mph 1011.6mb 68f 65f
4:50 5.5ft 16s 7s 16 18 mph 1011.7mb 68f 66f
3:50 6ft 16s 7s 13 16 mph 1012.2mb 68f 66f
2:50 6ft 17s 7s 13 16 mph 1012.6mb 68f 66f
1:50 6ft 9s 7s 11 13 mph 1013.1mb 68f 66f
12:50 6ft 17s 7s 11 16 mph 1013.2mb 68f 66f
11:50 7ft 16s 7s 13 16 mph 1013.5mb 68f 66f
10:50 7ft 10s 7s 11 16 mph 1013.6mb 68f 65f
9:50 7ft 17s 7s 13 16 mph 1013.1mb 68f 65f
8:50  -   -   -  13 18 mph 1013.2mb 68f 65f
7:50 6ft 9s 7s 11 16 mph 1013.2mb 68f 65f
6:50 6.5ft 9s 7s 16 20 mph 1012.7mb 68f 65f
5:50 7ft 10s 7s 13 20 mph 1012.6mb 68f 64f
4:50 7ft 17s 7s 13 16 mph 1012.5mb 68f 64f
3:50  -   -   -  16 20 mph 1012.4mb 68f 64f
2:50 7ft 10s 6s 18 22 mph 1012.4mb 68f 65f
1:50 7.5ft 11s 6s 18 22 mph 1012.6mb 68f 64f
12:50 7ft 9s 6s 16 22 mph 1013mb 68f 65f
Mo 07/27 11:50 8ft 9s 6s 18 22 mph 1013.2mb 68f 64f
10:50 7ft 9s 6s 18 22 mph 1013.5mb 68f 65f
9:50 7ft 9s 6s 20 27 mph 1013.2mb 68f 65f
8:50 7ft 17s 6s 20 25 mph 1012.9mb 68f 65f
7:50 7ft 16s 6s 18 25 mph 1012.7mb 68f 64f
6:50 6.5ft 8s 7s 18 22 mph 1012.6mb 68f 65f
5:50 6ft 11s 6s 18 25 mph 1012.4mb 68f 65f
4:50 6.5ft 8s 7s 18 25 mph 1012.6mb 68f 65f
3:50 6ft 8s 6s 16 20 mph 1013mb 68f 65f
2:50 6ft 8s 6s 13 18 mph 1013.6mb 68f 65f
1:50 6ft 12s 6s 16 20 mph 1013.9mb 68f 65f
12:50 7ft 8s 6s 16 20 mph 1014.2mb 68f 65f
11:50 6.5ft 9s 6s 13 18 mph 1014.6mb 68f 65f
10:50 7ft 8s 6s 13 18 mph 1014.5mb 68f 65f
9:50 6.5ft 8s 6s 18 20 mph 1014.4mb 68f 65f
8:50  -   -   -  16 20 mph 1014.3mb 68f 65f
7:50 6ft 7s 6s 18 22 mph 1013.8mb 68f 65f
6:50 6ft 7s 6s 18 22 mph 1013.7mb 68f 65f
5:50 6ft 7s 6s 18 25 mph 1013mb 68f 66f
4:50  -   -   -  18 25 mph 1013mb 68f 66f
3:50  -   -   -  18 22 mph 1013.1mb 68f 65f
2:50 6ft 7s 6s 18 25 mph 1013.2mb 68f 65f
1:50 6ft 7s 5s 18 22 mph 1013.5mb 68f 65f
12:50 6ft 6s 6s 20 25 mph 1013.9mb 68f 65f
So 07/26 11:50 6ft 6s 5s 20 25 mph 1014.2mb 68f 65f
10:50 6.5ft 6s 6s 20 25 mph 1014.4mb 68f 65f
9:50 6ft 7s 6s 20 25 mph 1013.9mb 68f 65f
8:50  -   -   -  18 22 mph 1013.8mb 68f 65f
7:50 6ft 6s 5s 20 25 mph 1013.8mb 68f 65f
6:50 5.5ft 6s 5s 20 22 mph 1013.6mb 68f 65f
5:50 5.5ft 15s 6s 18 22 mph 1013.9mb 68f 66f
4:50 6ft 7s 6s 18 22 mph 1014.2mb 68f 66f
3:50 6ft 14s 6s 18 22 mph 1014.4mb 68f 66f
2:50 6ft 7s 6s 18 22 mph 1014.8mb 68f 66f
1:50 6.5ft 7s 6s 18 22 mph 1015.3mb 68f 65f
12:50 6.5ft 7s 6s 18 20 mph 1015.9mb 68f 65f
11:50 7ft 8s 6s 16 20 mph 1016.1mb 68f 66f
10:50  -   -   -  16 22 mph 1016.2mb 68f 65f
9:50 7ft 7s 6s 16 20 mph 1015.6mb 68f 65f
8:50  -   -   -  18 22 mph 1015.4mb 68f 64f
7:50 7ft 8s 6s 20 25 mph 1014.9mb 68f 64f
6:50  -   -   -  20 27 mph 1014.3mb 68f 64f
5:50 7ft 7s 6s 22 27 mph 1013.5mb 68f 64f
4:50 7ft 7s 6s 20 25 mph 1013.5mb 68f 64f
3:50 7ft 7s 6s 22 27 mph 1013.5mb 68f 64f
2:50 7ft 7s 6s 20 25 mph 1013.8mb 68f 64f
1:50 6ft 7s 6s 20 25 mph 1013.9mb 68f 65f
12:50 6.5ft 7s 6s 20 25 mph 1014.2mb 68f 66f
Sa 07/25 11:50 6ft 7s 6s 20 25 mph 1014.5mb 68f 67f
10:50 6ft 6s 5s 22 27 mph 1014.3mb 68f 67f
9:50 6ft 5s 5s 20 25 mph 1014.3mb 69f 67f
8:50 6ft 6s 6s 20 27 mph 1013.9mb 69f 67f
7:50 6ft 7s 6s 20 22 mph 1013.8mb 69f 67f
6:50 6ft 16s 6s 20 22 mph 1013.9mb 69f 68f
5:50  -   -   -  18 22 mph 1014.3mb 69f 68f
4:50 5ft 7s 6s 18 22 mph 1014.7mb 69f 67f
3:50 5ft 14s 5s 18 22 mph 1015.2mb 69f 67f
2:50 5ft 7s 5s 18 22 mph 1015.7mb 69f 67f
1:50 5ft 16s 6s 18 22 mph 1016.3mb 69f 67f
12:50 5ft 6s 6s 16 20 mph 1016.9mb 69f 67f